createdAt,value
2022-11-16T00:01:07.177Z,7.20
2022-11-16T01:09:58.436Z,7.20
2022-11-16T01:12:25.229Z,7.20
2022-11-16T01:14:52.103Z,7.10
2022-11-16T01:17:18.846Z,7.00
2022-11-16T01:19:45.623Z,7.00
2022-11-16T01:22:12.527Z,7.00
2022-11-16T01:24:39.394Z,7.00
2022-11-16T01:27:06.151Z,6.90
2022-11-16T01:29:33.208Z,7.00
2022-11-16T02:05:08.350Z,6.90
2022-11-16T02:08:25.905Z,6.80
2022-11-16T02:10:55.386Z,6.80
2022-11-16T02:13:25.131Z,6.80
2022-11-16T02:16:11.911Z,6.70
2022-11-16T02:18:53.033Z,6.80
2022-11-16T02:21:27.170Z,6.80
2022-11-16T02:24:31.700Z,6.90
2022-11-16T02:27:48.361Z,7.00
2022-11-16T02:30:15.775Z,7.00
2022-11-16T02:33:08.774Z,7.10
2022-11-16T02:36:01.098Z,7.00
2022-11-16T02:38:32.974Z,7.10
2022-11-16T02:41:09.105Z,7.10
2022-11-16T02:43:41.073Z,7.10
2022-11-16T02:46:12.530Z,7.10
2022-11-16T02:48:44.390Z,7.20
2022-11-16T02:51:11.246Z,7.10
2022-11-16T02:53:50.107Z,7.00
2022-11-16T02:56:16.946Z,6.90
2022-11-16T02:58:43.861Z,6.90
2022-11-16T03:01:18.765Z,6.90
2022-11-16T03:04:02.955Z,7.00
2022-11-16T03:06:33.371Z,7.00
2022-11-16T03:09:17.882Z,7.00
2022-11-16T03:12:01.678Z,7.10
2022-11-16T03:14:47.050Z,7.10
2022-11-16T03:17:38.768Z,7.10
2022-11-16T03:20:09.350Z,7.10
2022-11-16T03:22:49.498Z,7.00
2022-11-16T03:25:19.698Z,6.90
2022-11-16T03:28:05.471Z,6.90
2022-11-16T03:30:37.029Z,7.10
2022-11-16T03:33:25.876Z,7.10
2022-11-16T03:36:01.739Z,7.10
2022-11-16T03:38:29.066Z,7.10
2022-11-16T03:41:01.273Z,7.10
2022-11-16T03:43:28.628Z,7.10
2022-11-16T03:45:56.689Z,7.10
2022-11-16T03:48:23.846Z,7.10
2022-11-16T03:50:52.038Z,7.00
2022-11-16T03:53:18.925Z,7.00
2022-11-16T03:55:49.638Z,7.00
2022-11-16T03:58:18.630Z,7.00
2022-11-16T04:00:45.680Z,6.90
2022-11-16T04:03:13.127Z,6.80
2022-11-16T04:05:58.474Z,6.80
2022-11-16T04:08:43.860Z,6.70
2022-11-16T04:11:35.103Z,6.80
2022-11-16T04:14:20.345Z,6.80
2022-11-16T04:17:05.570Z,6.70
2022-11-16T04:19:56.779Z,6.70
2022-11-16T04:22:48.746Z,6.70
2022-11-16T04:25:21.567Z,6.80
2022-11-16T04:28:08.039Z,6.70
2022-11-16T04:30:53.572Z,6.70
2022-11-16T04:33:43.329Z,6.60
2022-11-16T04:36:28.819Z,6.70
2022-11-16T04:38:55.665Z,6.70
2022-11-16T04:41:40.810Z,6.60
2022-11-16T04:44:07.534Z,6.60
2022-11-16T04:46:52.743Z,6.80
2022-11-16T04:49:19.594Z,6.90
2022-11-16T04:51:46.314Z,6.90
2022-11-16T04:54:13.182Z,6.90
2022-11-16T04:56:39.895Z,6.90
2022-11-16T04:59:06.657Z,6.90
2022-11-16T05:01:52.046Z,6.90
2022-11-16T05:04:18.837Z,7.00
2022-11-16T05:06:45.778Z,6.90
2022-11-16T05:09:12.624Z,7.00
2022-11-16T05:11:39.437Z,7.00
2022-11-16T05:14:06.663Z,7.00
2022-11-16T05:16:34.047Z,7.00
2022-11-16T05:19:19.412Z,7.00
2022-11-16T05:21:46.185Z,7.00
2022-11-16T05:24:31.430Z,7.00
2022-11-16T05:26:58.173Z,6.90
2022-11-16T05:29:25.054Z,7.00
2022-11-16T05:31:51.803Z,6.80
2022-11-16T05:34:18.790Z,6.90
2022-11-16T05:36:45.518Z,6.80
2022-11-16T05:39:12.705Z,6.70
2022-11-16T05:41:39.458Z,6.60
2022-11-16T05:44:06.253Z,6.50
2022-11-16T05:46:33.226Z,6.40
2022-11-16T05:49:00.120Z,6.40
2022-11-16T05:51:26.862Z,6.50
2022-11-16T05:53:53.731Z,6.60
2022-11-16T05:56:20.575Z,6.60
2022-11-16T05:58:47.365Z,6.60
2022-11-16T06:01:14.138Z,6.70
2022-11-16T06:03:40.939Z,6.70
2022-11-16T06:06:07.772Z,6.70
2022-11-16T06:08:34.988Z,6.70
2022-11-16T06:11:03.952Z,6.70
2022-11-16T06:13:31.540Z,6.70
2022-11-16T06:15:58.995Z,6.50
2022-11-16T06:18:26.080Z,6.50
2022-11-16T06:20:53.348Z,6.40
2022-11-16T06:23:20.486Z,6.40
2022-11-16T06:25:47.611Z,6.40
2022-11-16T06:28:14.396Z,6.40
2022-11-16T06:30:41.288Z,6.40
2022-11-16T06:33:08.807Z,6.40
2022-11-16T06:35:35.563Z,6.50
2022-11-16T06:38:03.444Z,6.40
2022-11-16T06:40:30.238Z,6.40
2022-11-16T06:42:57.331Z,6.30
2022-11-16T06:45:24.126Z,6.30
2022-11-16T06:47:50.949Z,6.30
2022-11-16T06:50:19.346Z,6.40
2022-11-16T06:52:47.610Z,6.30
2022-11-16T06:55:14.625Z,6.20
2022-11-16T06:57:41.478Z,6.20
2022-11-16T07:00:10.702Z,6.20
2022-11-16T07:02:38.636Z,6.20
2022-11-16T07:05:06.537Z,6.30
2022-11-16T07:07:34.068Z,6.30
2022-11-16T07:10:00.978Z,6.30
2022-11-16T07:12:27.844Z,6.20
2022-11-16T07:14:54.652Z,6.20
2022-11-16T07:17:21.427Z,6.20
2022-11-16T07:19:48.156Z,6.20
2022-11-16T07:22:14.886Z,6.10
2022-11-16T07:24:41.633Z,6.10
2022-11-16T07:27:08.902Z,6.10
2022-11-16T07:29:35.761Z,6.10
2022-11-16T07:32:02.580Z,6.20
2022-11-16T07:34:29.331Z,6.20
2022-11-16T07:36:56.082Z,6.10
2022-11-16T07:39:22.874Z,6.10
2022-11-16T07:41:53.091Z,6.20
2022-11-16T07:44:20.942Z,6.10
2022-11-16T07:46:48.583Z,6.10
2022-11-16T07:49:17.290Z,6.10
2022-11-16T07:51:45.690Z,6.20
2022-11-16T07:54:13.790Z,6.20
2022-11-16T07:56:41.230Z,6.20
2022-11-16T07:59:08.619Z,6.30
2022-11-16T08:01:35.495Z,6.30
2022-11-16T08:04:02.748Z,6.40
2022-11-16T08:06:31.862Z,6.40
2022-11-16T08:08:59.595Z,6.50
2022-11-16T08:11:26.491Z,6.40
2022-11-16T08:13:53.666Z,6.40
2022-11-16T08:16:22.770Z,6.40
2022-11-16T08:18:49.657Z,6.50
2022-11-16T08:21:18.147Z,6.40
2022-11-16T08:23:45.428Z,6.40
2022-11-16T08:26:20.486Z,6.40
2022-11-16T08:28:50.990Z,6.40
2022-11-16T08:31:24.166Z,6.40
2022-11-16T08:33:51.943Z,6.40
2022-11-16T08:36:19.202Z,6.30
2022-11-16T08:38:48.202Z,6.40
2022-11-16T08:41:16.044Z,6.50
2022-11-16T08:43:43.453Z,6.40
2022-11-16T08:46:11.442Z,6.50
2022-11-16T08:48:38.918Z,6.50
2022-11-16T08:51:18.601Z,6.50
2022-11-16T08:53:48.195Z,6.50
2022-11-16T08:56:16.605Z,6.60
2022-11-16T08:58:44.401Z,6.60
2022-11-16T09:01:14.114Z,6.60
2022-11-16T09:03:41.745Z,6.80
2022-11-16T09:06:10.036Z,6.80
2022-11-16T09:08:38.395Z,6.80
2022-11-16T09:11:06.928Z,6.70
2022-11-16T09:13:33.984Z,6.90
2022-11-16T09:16:01.442Z,7.00
2022-11-16T09:18:28.625Z,6.90
2022-11-16T09:20:56.162Z,6.80
2022-11-16T09:23:25.531Z,6.70
2022-11-16T09:25:54.579Z,6.70
2022-11-16T09:28:22.309Z,6.80
2022-11-16T09:30:50.981Z,6.90
2022-11-16T09:33:17.988Z,6.90
2022-11-16T09:35:44.902Z,6.90
2022-11-16T09:38:14.863Z,6.90
2022-11-16T09:40:47.447Z,6.80
2022-11-16T09:43:30.900Z,6.90
2022-11-16T09:46:03.805Z,7.10
2022-11-16T09:48:33.347Z,7.10
2022-11-16T09:51:02.927Z,7.00
2022-11-16T09:53:36.109Z,6.80
2022-11-16T09:56:25.313Z,6.80
2022-11-16T09:59:25.594Z,6.70
2022-11-16T10:02:05.797Z,6.80
2022-11-16T10:04:56.656Z,7.00
2022-11-16T10:07:30.268Z,7.10
2022-11-16T10:09:57.220Z,7.10
2022-11-16T10:12:43.816Z,7.20
2022-11-16T10:15:28.654Z,7.30
2022-11-16T10:18:13.981Z,7.30
2022-11-16T10:20:52.032Z,7.20
2022-11-16T10:23:40.034Z,7.20
2022-11-16T10:26:27.878Z,7.10
2022-11-16T10:29:15.705Z,7.00
2022-11-16T10:32:08.978Z,7.00
2022-11-16T10:34:52.634Z,7.00
2022-11-16T10:37:20.867Z,7.10
2022-11-16T10:39:50.969Z,7.20
2022-11-16T10:42:52.062Z,7.10
2022-11-16T10:45:40.338Z,7.10
2022-11-16T10:48:17.641Z,7.40
2022-11-16T10:50:46.870Z,7.50
2022-11-16T10:53:15.385Z,7.70
2022-11-16T10:55:42.558Z,7.60
2022-11-16T10:58:09.431Z,7.60
2022-11-16T11:00:47.386Z,7.80
2022-11-16T11:03:14.670Z,7.80
2022-11-16T11:05:53.850Z,7.70
2022-11-16T11:08:31.051Z,7.80
2022-11-16T11:11:01.789Z,7.80
2022-11-16T11:13:28.904Z,7.60
2022-11-16T11:16:22.053Z,7.60
2022-11-16T11:18:48.783Z,7.60
2022-11-16T11:21:24.131Z,7.60
2022-11-16T11:23:54.286Z,7.60
2022-11-16T11:26:38.634Z,7.70
2022-11-16T11:29:20.147Z,7.60
2022-11-16T11:31:50.797Z,7.60
2022-11-16T11:34:42.309Z,7.60
2022-11-16T11:37:20.651Z,7.50
2022-11-16T11:39:47.510Z,7.40
2022-11-16T11:42:14.276Z,7.30
2022-11-16T11:44:51.915Z,7.30
2022-11-16T11:47:56.328Z,7.30
2022-11-16T11:50:19.830Z,7.30
2022-11-16T11:53:28.304Z,7.20
2022-11-16T11:55:59.896Z,7.10
2022-11-16T11:58:31.114Z,7.20
2022-11-16T12:01:03.701Z,7.10
2022-11-16T12:03:46.353Z,7.20
2022-11-16T12:06:26.597Z,7.20
2022-11-16T12:09:17.563Z,7.20
2022-11-16T12:12:15.023Z,7.20
2022-11-16T12:15:06.870Z,7.20
2022-11-16T12:17:45.630Z,7.20
2022-11-16T12:20:36.707Z,7.30
2022-11-16T12:54:14.384Z,7.40
2022-11-16T12:56:49.089Z,7.40
2022-11-16T12:59:42.394Z,7.50
2022-11-16T13:02:09.288Z,7.30
2022-11-16T13:04:46.632Z,7.10
2022-11-16T13:07:42.695Z,7.10
2022-11-16T13:10:20.895Z,7.10
2022-11-16T13:12:55.848Z,7.10
2022-11-16T13:15:41.252Z,7.00
2022-11-16T13:18:14.195Z,7.00
2022-11-16T13:20:53.710Z,7.00
2022-11-16T13:23:32.737Z,7.10
2022-11-16T13:26:19.906Z,7.10
2022-11-16T13:29:39.163Z,7.00
2022-11-16T13:32:31.926Z,7.00
2022-11-16T13:35:05.128Z,7.10
2022-11-16T13:37:37.768Z,7.10
2022-11-16T13:40:04.646Z,7.20
2022-11-16T13:42:34.293Z,7.30
2022-11-16T13:45:09.387Z,7.40
2022-11-16T13:47:57.487Z,7.40
2022-11-16T13:50:52.515Z,7.50
2022-11-16T13:56:17.046Z,7.40
2022-11-16T13:58:57.438Z,7.50
2022-11-16T14:01:24.379Z,7.50
2022-11-16T14:04:12.079Z,7.50
2022-11-16T14:06:44.038Z,7.50
2022-11-16T14:09:43.650Z,7.50
2022-11-16T14:12:37.744Z,7.40
2022-11-16T14:15:22.694Z,7.40
2022-11-16T14:18:01.556Z,7.40
2022-11-16T14:20:28.272Z,7.40
2022-11-16T14:23:25.192Z,7.50
2022-11-16T14:26:27.082Z,7.50
2022-11-16T14:29:12.731Z,7.50
2022-11-16T14:31:52.569Z,7.50
2022-11-16T14:34:23.415Z,7.50
2022-11-16T14:36:50.642Z,7.50
2022-11-16T14:39:37.514Z,7.40
2022-11-16T14:42:15.215Z,7.50
2022-11-16T14:44:43.285Z,7.60
2022-11-16T14:47:22.857Z,7.70
2022-11-16T14:49:50.197Z,7.70
2022-11-16T14:52:22.030Z,7.80
2022-11-16T14:54:51.968Z,7.80
2022-11-16T14:57:21.567Z,7.70
2022-11-16T14:59:48.693Z,7.60
2022-11-16T15:02:24.569Z,7.50
2022-11-16T15:04:53.192Z,7.60
2022-11-16T15:07:23.182Z,7.60
2022-11-16T15:09:53.378Z,7.50
2022-11-16T15:12:42.054Z,7.40
2022-11-16T15:15:11.714Z,7.40
2022-11-16T15:17:44.103Z,7.30
2022-11-16T15:20:17.099Z,7.20
2022-11-16T15:22:46.899Z,7.10
2022-11-16T15:25:45.792Z,7.20
2022-11-16T15:28:18.566Z,7.10
2022-11-16T15:30:54.786Z,7.00
2022-11-16T15:33:31.012Z,7.00
2022-11-16T15:35:58.161Z,7.00
2022-11-16T15:38:32.943Z,7.10
2022-11-16T15:41:01.579Z,7.20
2022-11-16T15:43:49.564Z,7.30
2022-11-16T15:46:23.419Z,7.30
2022-11-16T15:48:50.651Z,7.20
2022-11-16T15:51:20.273Z,7.20
2022-11-16T15:53:48.850Z,7.20
2022-11-16T15:56:30.462Z,7.10
2022-11-16T15:59:01.240Z,6.90
2022-11-16T16:01:30.128Z,6.80
2022-11-16T16:04:01.142Z,6.90
2022-11-16T16:06:56.202Z,7.00
2022-11-16T16:09:25.774Z,7.10
2022-11-16T16:11:54.730Z,7.10
2022-11-16T16:14:29.594Z,7.00
2022-11-16T16:16:58.510Z,6.90
2022-11-16T16:19:25.283Z,6.80
2022-11-16T16:21:52.249Z,6.80
2022-11-16T16:24:38.338Z,6.80
2022-11-16T16:27:16.635Z,6.90
2022-11-16T16:29:44.221Z,7.00
2022-11-16T16:32:24.381Z,7.00
2022-11-16T16:34:52.801Z,6.90
2022-11-16T16:37:19.846Z,7.00
2022-11-16T16:39:46.804Z,6.80
2022-11-16T16:42:15.495Z,6.80
2022-11-16T16:44:43.838Z,6.80
2022-11-16T16:47:10.974Z,6.80
2022-11-16T16:49:38.002Z,6.90
2022-11-16T16:52:06.072Z,6.80
2022-11-16T16:54:33.042Z,6.90
2022-11-16T16:57:01.470Z,6.80
2022-11-16T16:59:30.113Z,6.80
2022-11-16T17:01:57.610Z,6.90
2022-11-16T17:04:25.229Z,6.70
2022-11-16T17:06:52.960Z,6.60
2022-11-16T17:09:20.077Z,6.60
2022-11-16T17:11:47.779Z,6.40
2022-11-16T17:14:14.577Z,6.30
2022-11-16T17:16:41.317Z,6.40
2022-11-16T17:19:08.067Z,6.30
2022-11-16T17:21:34.781Z,6.30
2022-11-16T17:24:01.495Z,6.30
2022-11-16T17:26:29.527Z,6.40
2022-11-16T17:28:57.578Z,6.40
2022-11-16T17:31:25.790Z,6.40
2022-11-16T17:33:52.735Z,6.40
2022-11-16T17:36:19.869Z,6.40
2022-11-16T17:38:46.747Z,6.40
2022-11-16T17:41:18.706Z,6.40
2022-11-16T17:43:46.768Z,6.40
2022-11-16T17:46:19.134Z,6.30
2022-11-16T17:48:47.433Z,6.30
2022-11-16T17:51:17.363Z,6.20
2022-11-16T17:53:44.353Z,6.20
2022-11-16T17:56:13.470Z,6.30
2022-11-16T17:58:40.517Z,6.20
2022-11-16T18:01:07.705Z,6.30
2022-11-16T18:03:38.652Z,6.00
2022-11-16T18:06:13.228Z,5.90
2022-11-16T18:08:41.588Z,6.00
2022-11-16T18:11:11.438Z,6.00
2022-11-16T18:13:38.883Z,5.80
2022-11-16T18:16:12.586Z,5.80
2022-11-16T18:18:40.078Z,5.90
2022-11-16T18:21:08.114Z,6.10
2022-11-16T18:23:36.757Z,6.10
2022-11-16T18:26:12.914Z,6.20
2022-11-16T18:28:41.139Z,6.20
2022-11-16T18:31:13.219Z,6.30
2022-11-16T18:33:40.323Z,6.30
2022-11-16T18:36:08.042Z,6.40
2022-11-16T18:38:36.367Z,6.50
2022-11-16T18:41:12.239Z,6.50
2022-11-16T18:43:48.435Z,6.50
2022-11-16T18:46:15.273Z,6.50
2022-11-16T18:48:43.344Z,6.30
2022-11-16T18:51:11.200Z,6.20
2022-11-16T18:53:38.541Z,6.10
2022-11-16T18:56:05.979Z,6.20
2022-11-16T18:58:49.921Z,6.20
2022-11-16T19:01:19.312Z,6.20
2022-11-16T19:03:46.544Z,6.20
2022-11-16T19:06:15.608Z,6.10
2022-11-16T19:08:44.159Z,5.90
2022-11-16T19:11:23.337Z,5.80
2022-11-16T19:13:54.495Z,5.80
2022-11-16T19:16:22.151Z,5.90
2022-11-16T19:18:48.988Z,6.10
2022-11-16T19:21:20.179Z,6.20
2022-11-16T19:23:48.960Z,6.00
2022-11-16T19:26:17.250Z,6.00
2022-11-16T19:28:46.426Z,6.10
2022-11-16T19:31:18.094Z,6.10
2022-11-16T19:33:45.681Z,6.00
2022-11-16T19:36:15.067Z,6.00
2022-11-16T19:38:42.613Z,6.00
2022-11-16T19:41:11.653Z,6.00
2022-11-16T19:43:38.912Z,6.10
2022-11-16T19:46:11.196Z,6.20
2022-11-16T19:48:38.617Z,6.20
2022-11-16T19:51:07.451Z,6.00
2022-11-16T19:53:35.063Z,6.00
2022-11-16T19:56:03.186Z,5.90
2022-11-16T19:58:30.980Z,5.90
2022-11-16T20:01:10.394Z,5.90
2022-11-16T20:03:38.579Z,6.00
2022-11-16T20:06:12.647Z,6.00
2022-11-16T20:08:40.618Z,6.00
2022-11-16T20:11:12.579Z,6.00
2022-11-16T20:13:39.525Z,5.90
2022-11-16T20:16:07.586Z,5.90
2022-11-16T20:18:34.309Z,5.90
2022-11-16T20:21:02.475Z,5.90
2022-11-16T20:23:29.295Z,5.80
2022-11-16T20:25:56.077Z,5.90
2022-11-16T20:28:22.983Z,5.90
2022-11-16T20:30:49.731Z,5.90
2022-11-16T20:33:16.472Z,5.90
2022-11-16T20:35:43.226Z,5.90
2022-11-16T20:38:09.995Z,5.90
2022-11-16T20:40:36.750Z,5.90
2022-11-16T20:43:03.594Z,5.60
2022-11-16T20:45:34.143Z,5.60
2022-11-16T20:48:00.893Z,5.70
2022-11-16T20:50:27.642Z,5.80
2022-11-16T20:52:54.424Z,5.80
2022-11-16T20:55:21.156Z,5.70
2022-11-16T20:57:47.930Z,5.70
2022-11-16T21:00:15.358Z,5.80
2022-11-16T21:02:42.083Z,5.70
2022-11-16T21:05:09.270Z,5.60
2022-11-16T21:07:36.124Z,5.40
2022-11-16T21:10:21.207Z,5.50
2022-11-16T21:13:08.282Z,5.50
2022-11-16T21:15:35.032Z,5.20
2022-11-16T21:18:01.785Z,5.10
2022-11-16T21:20:28.923Z,5.20
2022-11-16T21:22:55.794Z,4.90
2022-11-16T21:25:22.619Z,4.90
2022-11-16T21:27:49.455Z,5.00
2022-11-16T21:30:16.656Z,4.90
2022-11-16T21:32:43.411Z,4.80
2022-11-16T21:35:10.284Z,4.70
2022-11-16T21:37:37.014Z,4.80
2022-11-16T21:40:04.110Z,5.00
2022-11-16T21:42:30.931Z,5.10
2022-11-16T21:44:57.690Z,4.80
2022-11-16T21:47:24.495Z,4.80
2022-11-16T21:50:16.765Z,4.90
2022-11-16T21:52:38.086Z,4.90
2022-11-16T21:55:05.227Z,4.90
2022-11-16T21:57:31.953Z,5.00
2022-11-16T22:00:00.936Z,5.00
2022-11-16T22:02:27.787Z,5.00
2022-11-16T22:05:13.242Z,5.10
2022-11-16T22:07:41.339Z,5.10
2022-11-16T22:10:10.778Z,4.70
2022-11-16T22:12:38.079Z,4.70
2022-11-16T22:15:07.370Z,4.80
2022-11-16T22:17:34.150Z,4.50
2022-11-16T22:20:00.910Z,4.70
2022-11-16T22:22:27.625Z,4.90
2022-11-16T22:24:54.503Z,5.00
2022-11-16T22:27:21.379Z,4.90
2022-11-16T22:29:48.118Z,5.00
2022-11-16T22:32:14.859Z,5.00
2022-11-16T22:34:41.655Z,5.10
2022-11-16T22:37:08.596Z,5.00
2022-11-16T22:39:36.616Z,4.90
2022-11-16T22:42:04.207Z,5.10
2022-11-16T22:44:30.958Z,5.10
2022-11-16T22:46:57.702Z,5.00
2022-11-16T22:49:25.051Z,5.00
2022-11-16T22:51:51.903Z,5.20
2022-11-16T22:54:18.706Z,5.30
2022-11-16T22:56:47.305Z,5.30
2022-11-16T22:59:14.270Z,5.30
2022-11-16T23:01:41.001Z,5.30
2022-11-16T23:04:07.807Z,5.20
2022-11-16T23:06:34.506Z,5.20
2022-11-16T23:09:01.335Z,5.20
2022-11-16T23:11:47.034Z,5.30
2022-11-16T23:14:34.526Z,5.30
2022-11-16T23:17:02.323Z,5.40
2022-11-16T23:19:48.142Z,5.40
2022-11-16T23:22:36.635Z,5.40
2022-11-16T23:25:23.982Z,5.40
2022-11-16T23:28:09.729Z,5.20
2022-11-16T23:30:36.663Z,5.20
2022-11-16T23:33:04.024Z,5.30
2022-11-16T23:35:30.761Z,5.40
2022-11-16T23:38:02.505Z,5.40
2022-11-16T23:40:34.014Z,5.40
2022-11-16T23:43:19.666Z,5.40
2022-11-16T23:45:46.952Z,5.40
2022-11-16T23:48:15.870Z,5.40
2022-11-16T23:50:43.896Z,5.40
2022-11-16T23:53:11.543Z,5.40
2022-11-16T23:55:39.397Z,5.40
2022-11-16T23:58:07.618Z,5.40
